Time;durP1;ratioP1;P1;durP2;ratioP2;P2;SDS_P1;SDS_P2;PMS_P1;PMS_P2;Temp;Humidity;BMP_temperature;BMP_pressure;BME280_temperature;BME280_humidity;BME280_pressure;Samples;Min_cycle;Max_cycle;Signal;HPM_P1;HPM_P2
2023/10/24 00:00:56;;;;;;;7.57;5.00;;;11.40;99.90;;;;;;5018529;28;20239;-71
2023/10/24 00:03:22;;;;;;;7.87;4.60;;;11.40;99.90;;;;;;5021625;28;20211;-70
2023/10/24 00:06:03;;;;;;;5.90;4.30;;;11.40;99.90;;;;;;4991276;28;20296;-71
2023/10/24 00:08:29;;;;;;;7.47;4.80;;;11.40;99.90;;;;;;5016685;28;20223;-72
2023/10/24 00:11:04;;;;;;;9.83;5.80;;;11.50;99.90;;;;;;5003136;28;20692;-71
2023/10/24 00:13:30;;;;;;;8.60;5.37;;;11.40;99.90;;;;;;5018658;28;20208;-71
2023/10/24 00:15:57;;;;;;;8.80;5.03;;;11.40;99.90;;;;;;5018162;28;20204;-69
2023/10/24 00:18:24;;;;;;;7.57;5.23;;;11.40;99.90;;;;;;5020880;28;20209;-71
2023/10/24 00:20:50;;;;;;;7.10;5.00;;;11.40;99.90;;;;;;5024292;28;20172;-71
2023/10/24 00:23:16;;;;;;;6.63;4.77;;;11.40;99.90;;;;;;5025608;28;20266;-71
2023/10/24 00:25:41;;;;;;;7.90;5.10;;;11.40;99.90;;;;;;5024270;28;20222;-71
2023/10/24 00:28:07;;;;;;;6.57;5.07;;;11.40;99.90;;;;;;5026199;28;20711;-70
2023/10/24 00:30:32;;;;;;;9.63;5.20;;;11.40;99.90;;;;;;5022907;28;20227;-71
2023/10/24 00:32:58;;;;;;;6.93;4.70;;;11.40;99.90;;;;;;5006603;28;20275;-71
2023/10/24 00:35:24;;;;;;;8.13;4.97;;;11.40;99.90;;;;;;5018246;28;20181;-71
2023/10/24 00:37:49;;;;;;;6.87;5.07;;;11.40;99.90;;;;;;5020044;28;20211;-71
2023/10/24 00:40:15;;;;;;;7.33;4.80;;;11.40;99.90;;;;;;5023373;28;20300;-72
2023/10/24 00:42:41;;;;;;;7.07;4.93;;;11.30;99.90;;;;;;5022278;28;20217;-71
2023/10/24 00:45:07;;;;;;;9.70;5.67;;;11.40;99.90;;;;;;5027689;28;20191;-72
2023/10/24 00:47:33;;;;;;;6.70;4.70;;;11.40;99.90;;;;;;5022286;28;20776;-72
2023/10/24 00:49:59;;;;;;;7.87;4.43;;;11.40;99.90;;;;;;5023347;28;20232;-72
2023/10/24 00:52:26;;;;;;;6.70;4.37;;;11.40;99.90;;;;;;5015081;28;20232;-71
2023/10/24 00:54:51;;;;;;;8.57;5.43;;;11.40;99.90;;;;;;5020067;28;20635;-71
2023/10/24 00:57:17;;;;;;;8.00;5.10;;;11.40;99.90;;;;;;5021063;28;20213;-71
2023/10/24 00:59:44;;;;;;;8.77;5.33;;;11.40;99.90;;;;;;5022492;28;20347;-72
2023/10/24 01:02:11;;;;;;;7.57;5.30;;;11.40;99.90;;;;;;5025579;28;20200;-72
2023/10/24 01:04:38;;;;;;;7.73;4.60;;;11.40;99.90;;;;;;5021736;28;20216;-72
2023/10/24 01:07:05;;;;;;;9.77;4.53;;;11.50;99.90;;;;;;5020396;28;20263;-72
2023/10/24 01:09:31;;;;;;;10.30;5.10;;;11.40;99.90;;;;;;5019862;28;20303;-72
2023/10/24 01:11:57;;;;;;;6.20;4.97;;;11.40;99.90;;;;;;5013226;28;20311;-71
2023/10/24 01:14:23;;;;;;;7.60;5.13;;;11.40;99.90;;;;;;5021195;28;20173;-72
2023/10/24 01:16:49;;;;;;;7.47;5.53;;;11.40;99.90;;;;;;5019032;28;20212;-72
2023/10/24 01:19:15;;;;;;;7.97;4.90;;;11.40;99.90;;;;;;5024316;28;20216;-72
2023/10/24 01:21:43;;;;;;;8.33;5.40;;;11.40;99.90;;;;;;5019894;28;20217;-72
2023/10/24 01:24:10;;;;;;;6.80;4.73;;;11.40;99.90;;;;;;5019081;28;20212;-72
2023/10/24 01:26:35;;;;;;;8.63;4.97;;;11.50;99.90;;;;;;5019271;28;20264;-72
2023/10/24 01:29:01;;;;;;;8.53;5.57;;;11.50;99.90;;;;;;5027397;28;20634;-72
2023/10/24 01:31:26;;;;;;;6.90;5.03;;;11.50;99.90;;;;;;5021706;28;20216;-72
2023/10/24 01:33:52;;;;;;;11.20;6.47;;;11.50;99.90;;;;;;5014230;28;20216;-73
2023/10/24 01:36:18;;;;;;;9.37;5.57;;;11.50;99.90;;;;;;5020138;28;20204;-71
2023/10/24 01:38:43;;;;;;;9.43;5.13;;;11.50;99.90;;;;;;5022632;28;20297;-71
2023/10/24 01:41:09;;;;;;;9.07;5.10;;;11.50;99.90;;;;;;5018402;28;20655;-72
2023/10/24 01:43:34;;;;;;;7.20;4.63;;;11.50;99.90;;;;;;5016926;28;20212;-72
2023/10/24 01:46:00;;;;;;;4.70;4.13;;;11.50;99.90;;;;;;5020923;28;20215;-72
2023/10/24 01:48:26;;;;;;;9.53;5.53;;;11.60;99.90;;;;;;5024694;28;20230;-71
2023/10/24 01:50:51;;;;;;;6.60;4.73;;;11.60;99.90;;;;;;5020914;28;20181;-73
2023/10/24 01:53:17;;;;;;;8.53;5.20;;;11.50;99.90;;;;;;5016592;28;20276;-72
2023/10/24 01:55:43;;;;;;;7.67;4.93;;;11.60;99.90;;;;;;5017532;28;20263;-71
2023/10/24 01:58:08;;;;;;;11.13;5.17;;;11.60;99.90;;;;;;5022341;28;20216;-71
2023/10/24 02:00:34;;;;;;;6.20;4.77;;;11.60;99.90;;;;;;5020455;28;20248;-72
2023/10/24 02:02:59;;;;;;;9.10;5.30;;;11.60;99.90;;;;;;5022446;28;20189;-71
2023/10/24 02:05:25;;;;;;;9.40;5.53;;;11.60;99.90;;;;;;5027333;28;20177;-71
2023/10/24 02:07:50;;;;;;;7.67;5.03;;;11.60;99.90;;;;;;5023301;28;20217;-71
2023/10/24 02:10:16;;;;;;;7.20;4.87;;;11.60;99.90;;;;;;5018036;28;20216;-71
2023/10/24 02:12:42;;;;;;;9.03;5.17;;;11.60;99.90;;;;;;5010388;28;20213;-72
2023/10/24 02:15:08;;;;;;;10.33;5.57;;;11.60;99.90;;;;;;5023384;28;20195;-71
2023/10/24 02:17:34;;;;;;;8.40;5.27;;;11.60;99.90;;;;;;5017749;28;20183;-70
2023/10/24 02:19:59;;;;;;;9.10;5.23;;;11.60;99.90;;;;;;5011717;28;20212;-72
2023/10/24 02:22:25;;;;;;;8.77;5.23;;;11.60;99.90;;;;;;5019382;28;20219;-72
2023/10/24 02:24:51;;;;;;;9.60;5.63;;;11.60;99.90;;;;;;5020349;28;20302;-72
2023/10/24 02:27:17;;;;;;;9.17;5.43;;;11.60;99.90;;;;;;5023368;28;20725;-72
2023/10/24 02:29:43;;;;;;;6.63;5.13;;;11.50;99.90;;;;;;5018866;28;20200;-73
2023/10/24 02:32:08;;;;;;;9.20;4.73;;;11.60;99.90;;;;;;5023464;28;20220;-72
2023/10/24 02:34:34;;;;;;;9.73;5.17;;;11.60;99.90;;;;;;5021831;28;20262;-72
2023/10/24 02:37:00;;;;;;;10.30;5.37;;;11.60;99.90;;;;;;5013994;28;20243;-72
2023/10/24 02:39:25;;;;;;;8.57;5.47;;;11.60;99.90;;;;;;5019269;28;20593;-72
2023/10/24 02:41:51;;;;;;;8.53;5.07;;;11.60;99.90;;;;;;5020299;28;20181;-72
2023/10/24 02:44:19;;;;;;;10.97;5.70;;;11.70;99.90;;;;;;5022269;28;20173;-73
2023/10/24 02:46:45;;;;;;;7.67;5.50;;;11.70;99.90;;;;;;5022051;28;20215;-73
2023/10/24 02:49:10;;;;;;;8.50;5.33;;;11.60;99.90;;;;;;5012199;28;20229;-74
2023/10/24 02:51:36;;;;;;;11.03;6.00;;;11.60;99.90;;;;;;5020086;28;20220;-71
2023/10/24 02:54:02;;;;;;;9.77;6.53;;;11.60;99.90;;;;;;5020033;28;20183;-73
2023/10/24 02:56:28;;;;;;;11.20;5.23;;;11.60;99.90;;;;;;5015174;28;20220;-73
2023/10/24 02:58:53;;;;;;;9.23;5.50;;;11.60;99.90;;;;;;5012113;28;20735;-73
2023/10/24 03:01:19;;;;;;;9.83;6.07;;;11.60;99.90;;;;;;5020822;28;20317;-74
2023/10/24 03:03:45;;;;;;;13.83;6.60;;;11.60;99.90;;;;;;5016051;28;20208;-73
2023/10/24 03:06:17;;;;;;;8.37;4.73;;;11.50;99.90;;;;;;5010067;28;20213;-74
2023/10/24 03:08:43;;;;;;;10.67;5.30;;;11.50;99.90;;;;;;5018847;28;20603;-74
2023/10/24 03:11:09;;;;;;;11.27;6.60;;;11.50;99.90;;;;;;5015713;28;20209;-72
2023/10/24 03:13:35;;;;;;;10.40;5.83;;;11.50;99.90;;;;;;5019728;28;20211;-74
2023/10/24 03:16:04;;;;;;;7.97;5.63;;;11.50;99.90;;;;;;5014426;28;20208;-74
2023/10/24 03:18:31;;;;;;;10.30;5.10;;;11.50;99.90;;;;;;5011860;28;20213;-74
2023/10/24 03:21:02;;;;;;;7.83;5.23;;;11.50;99.90;;;;;;5018976;28;20181;-72
2023/10/24 03:23:28;;;;;;;10.83;5.40;;;11.50;99.90;;;;;;5020018;28;20203;-74
2023/10/24 03:25:54;;;;;;;9.03;5.57;;;11.50;99.90;;;;;;5024534;28;20687;-74
2023/10/24 03:28:19;;;;;;;11.07;6.20;;;11.40;99.90;;;;;;5024990;28;20247;-73
2023/10/24 03:30:48;;;;;;;9.13;5.23;;;11.40;99.90;;;;;;5022060;28;20220;-74
2023/10/24 03:33:13;;;;;;;10.57;6.00;;;11.40;99.90;;;;;;5020201;28;20204;-73
2023/10/24 03:35:39;;;;;;;11.37;5.97;;;11.50;99.90;;;;;;5023109;28;20681;-73
2023/10/24 03:38:05;;;;;;;11.90;5.80;;;11.40;99.90;;;;;;5008344;28;20209;-74
2023/10/24 03:40:30;;;;;;;8.73;5.57;;;11.40;99.90;;;;;;5014508;28;20207;-73
2023/10/24 03:42:56;;;;;;;9.60;5.70;;;11.40;99.90;;;;;;5016992;28;20292;-71
2023/10/24 03:45:22;;;;;;;9.50;5.60;;;11.40;99.90;;;;;;5016483;28;20204;-72
2023/10/24 03:47:49;;;;;;;10.03;6.10;;;11.40;99.90;;;;;;5019689;28;20207;-73
2023/10/24 03:50:17;;;;;;;8.83;5.30;;;11.40;99.90;;;;;;5021123;28;20594;-73
2023/10/24 03:52:43;;;;;;;10.80;5.70;;;11.40;99.90;;;;;;5019047;28;20284;-71
2023/10/24 03:55:12;;;;;;;9.45;6.30;;;11.40;99.90;;;;;;5020580;28;20435;-72
2023/10/24 03:57:39;;;;;;;10.60;5.90;;;11.40;99.90;;;;;;5020074;28;20220;-74
2023/10/24 04:00:08;;;;;;;7.37;5.47;;;11.40;99.90;;;;;;5010944;28;20320;-74
2023/10/24 04:02:35;;;;;;;6.97;4.53;;;11.40;99.90;;;;;;5018239;28;20277;-73
2023/10/24 04:05:02;;;;;;;11.07;5.93;;;11.40;99.90;;;;;;5023270;28;20866;-73
2023/10/24 04:07:28;;;;;;;9.97;5.90;;;11.40;99.90;;;;;;5019908;28;20772;-73
2023/10/24 04:09:53;;;;;;;10.50;5.73;;;11.40;99.90;;;;;;5017864;28;20216;-73
2023/10/24 04:12:19;;;;;;;7.67;5.40;;;11.40;99.90;;;;;;5016022;28;20255;-73
2023/10/24 04:14:45;;;;;;;9.50;5.27;;;11.40;99.90;;;;;;5010133;28;20657;-72
2023/10/24 04:17:11;;;;;;;9.87;5.70;;;11.40;99.90;;;;;;5014004;28;20631;-73
2023/10/24 04:19:36;;;;;;;8.70;5.70;;;11.40;99.90;;;;;;5020255;28;20208;-73
2023/10/24 04:22:02;;;;;;;8.27;5.40;;;11.30;99.90;;;;;;5016472;28;20220;-73
2023/10/24 04:24:28;;;;;;;9.87;6.23;;;11.30;99.90;;;;;;5019560;28;20640;-73
2023/10/24 04:26:54;;;;;;;8.27;5.47;;;11.30;99.90;;;;;;5019580;28;20259;-72
2023/10/24 04:29:19;;;;;;;8.07;5.60;;;11.30;99.90;;;;;;5020665;28;20223;-73
2023/10/24 04:31:45;;;;;;;9.40;6.20;;;11.30;99.90;;;;;;5020590;28;20256;-71
2023/10/24 04:34:11;;;;;;;9.77;5.40;;;11.30;99.90;;;;;;5018310;28;20205;-72
2023/10/24 04:36:37;;;;;;;11.40;6.13;;;11.20;99.90;;;;;;5016228;28;20271;-73
2023/10/24 04:39:02;;;;;;;11.93;6.23;;;11.20;99.90;;;;;;5019074;28;20283;-73
2023/10/24 04:41:29;;;;;;;9.93;5.17;;;11.20;99.90;;;;;;5019286;28;20180;-72
2023/10/24 04:43:55;;;;;;;7.80;5.37;;;11.30;99.90;;;;;;5017427;28;20213;-73
2023/10/24 04:46:20;;;;;;;11.93;6.70;;;11.20;99.90;;;;;;5016888;28;20219;-72
2023/10/24 04:48:46;;;;;;;8.60;5.83;;;11.20;99.90;;;;;;5014767;28;20224;-73
2023/10/24 04:51:12;;;;;;;8.97;5.50;;;11.20;99.90;;;;;;5018892;28;20299;-73
2023/10/24 04:53:37;;;;;;;10.07;6.07;;;11.20;99.90;;;;;;5020304;28;20184;-71
2023/10/24 04:56:03;;;;;;;16.53;6.93;;;11.30;99.90;;;;;;5014575;28;20219;-71
2023/10/24 04:58:30;;;;;;;15.13;6.20;;;11.30;99.90;;;;;;5013419;28;20224;-73
2023/10/24 05:00:56;;;;;;;8.40;5.67;;;11.30;99.90;;;;;;5022405;28;20237;-72
2023/10/24 05:03:21;;;;;;;11.07;5.90;;;11.30;99.90;;;;;;5022520;28;20290;-72
2023/10/24 05:05:47;;;;;;;11.13;5.83;;;11.30;99.90;;;;;;5022621;28;20177;-73
2023/10/24 05:08:13;;;;;;;9.50;5.90;;;11.30;99.90;;;;;;5022493;28;20213;-74
2023/10/24 05:10:39;;;;;;;11.67;6.00;;;11.20;99.90;;;;;;5018669;28;20209;-74
2023/10/24 05:13:04;;;;;;;11.67;6.77;;;11.20;99.90;;;;;;5016089;28;20267;-73
2023/10/24 05:15:30;;;;;;;9.07;6.07;;;11.20;99.90;;;;;;5023162;28;20259;-73
2023/10/24 05:17:56;;;;;;;10.93;6.03;;;11.20;99.90;;;;;;5018412;28;20232;-71
2023/10/24 05:20:21;;;;;;;10.30;5.67;;;11.20;99.90;;;;;;5024561;28;20267;-72
2023/10/24 05:22:47;;;;;;;12.53;6.30;;;11.20;99.90;;;;;;5021044;28;20215;-73
2023/10/24 05:25:12;;;;;;;9.40;5.93;;;11.20;99.90;;;;;;5020358;28;20266;-73
2023/10/24 05:27:38;;;;;;;16.93;6.40;;;11.30;99.90;;;;;;5024613;28;20267;-73
2023/10/24 05:30:05;;;;;;;8.87;5.53;;;11.20;99.90;;;;;;5022029;28;20765;-73
2023/10/24 05:32:30;;;;;;;9.10;5.93;;;11.30;99.90;;;;;;5024396;28;20177;-73
2023/10/24 05:34:56;;;;;;;12.10;6.07;;;11.20;99.90;;;;;;5022645;28;20212;-72
2023/10/24 05:37:22;;;;;;;10.40;6.40;;;11.20;99.90;;;;;;5023275;28;20205;-72
2023/10/24 05:39:47;;;;;;;10.30;6.07;;;11.20;99.90;;;;;;5013651;28;20239;-73
2023/10/24 05:42:13;;;;;;;9.57;5.77;;;11.20;99.90;;;;;;5015804;28;20284;-73
2023/10/24 05:44:39;;;;;;;10.93;5.90;;;11.20;99.90;;;;;;5022819;28;20614;-74
2023/10/24 05:47:04;;;;;;;9.73;6.07;;;11.20;99.90;;;;;;5019507;28;20213;-73
2023/10/24 05:49:30;;;;;;;10.70;6.37;;;11.20;99.90;;;;;;5023611;28;20687;-73
2023/10/24 05:51:55;;;;;;;8.23;5.80;;;11.20;99.90;;;;;;5019793;28;20284;-73
2023/10/24 05:54:21;;;;;;;9.13;5.50;;;11.30;99.90;;;;;;5024734;28;20237;-71
2023/10/24 05:56:47;;;;;;;10.73;7.00;;;11.30;99.90;;;;;;5021586;28;20227;-74
2023/10/24 05:59:12;;;;;;;9.57;6.10;;;11.30;99.90;;;;;;5017026;28;20228;-73
2023/10/24 06:01:38;;;;;;;10.20;5.40;;;11.30;99.90;;;;;;5023179;28;20295;-72
2023/10/24 06:04:04;;;;;;;12.03;5.60;;;11.30;99.90;;;;;;5022249;28;20212;-73
2023/10/24 06:06:29;;;;;;;9.97;5.47;;;11.30;99.90;;;;;;5019969;28;20209;-74
2023/10/24 06:08:55;;;;;;;8.93;5.70;;;11.20;99.90;;;;;;5011930;28;20212;-71
2023/10/24 06:11:20;;;;;;;10.10;5.50;;;11.20;99.90;;;;;;5019941;28;20227;-72
2023/10/24 06:13:46;;;;;;;10.43;6.17;;;11.20;99.90;;;;;;5021547;28;20262;-74
2023/10/24 06:16:13;;;;;;;11.93;6.03;;;11.10;99.90;;;;;;5019547;28;20208;-73
2023/10/24 06:18:39;;;;;;;10.73;5.87;;;11.10;99.90;;;;;;5022798;28;20212;-73
2023/10/24 06:21:06;;;;;;;10.40;5.80;;;11.10;99.90;;;;;;5019470;28;20177;-72
2023/10/24 06:23:33;;;;;;;8.70;5.70;;;11.20;99.90;;;;;;5018887;28;20255;-73
2023/10/24 06:25:59;;;;;;;8.90;5.70;;;11.20;99.90;;;;;;5013177;28;20300;-73
2023/10/24 06:28:25;;;;;;;9.70;6.10;;;11.20;99.90;;;;;;5021996;28;20291;-74
2023/10/24 06:30:58;;;;;;;11.83;5.87;;;11.20;99.90;;;;;;5018517;28;20205;-73
2023/10/24 06:33:26;;;;;;;11.63;6.70;;;11.20;99.90;;;;;;5023403;28;20208;-72
2023/10/24 06:35:52;;;;;;;11.87;6.70;;;11.10;99.90;;;;;;5017994;28;20550;-73
2023/10/24 06:38:17;;;;;;;10.93;5.60;;;11.10;99.90;;;;;;5020774;28;20201;-73
2023/10/24 06:40:46;;;;;;;10.10;6.17;;;11.20;99.90;;;;;;5018374;28;20209;-74
2023/10/24 06:43:12;;;;;;;10.20;5.77;;;11.20;99.90;;;;;;5011414;28;20212;-73
2023/10/24 06:45:39;;;;;;;8.50;5.93;;;11.30;99.90;;;;;;5021435;28;20219;-71
2023/10/24 06:48:06;;;;;;;9.80;6.67;;;11.30;99.90;;;;;;5016525;28;20611;-73
2023/10/24 06:50:35;;;;;;;9.33;5.83;;;11.30;99.90;;;;;;5019497;28;20174;-73
2023/10/24 06:53:00;;;;;;;8.77;6.30;;;11.30;99.90;;;;;;5019806;28;20227;-73
2023/10/24 06:55:26;;;;;;;10.17;6.40;;;11.30;99.90;;;;;;5024050;28;20228;-74
2023/10/24 06:57:51;;;;;;;11.73;6.17;;;11.30;99.90;;;;;;5021418;28;20208;-70
2023/10/24 07:00:18;;;;;;;12.07;6.07;;;11.30;99.90;;;;;;5020827;28;20221;-73
2023/10/24 07:02:44;;;;;;;10.50;6.23;;;11.40;99.90;;;;;;5022647;28;20608;-74
2023/10/24 07:05:10;;;;;;;10.13;6.00;;;11.40;99.90;;;;;;5020326;28;20232;-73
2023/10/24 07:07:38;;;;;;;9.60;6.07;;;11.40;99.90;;;;;;5010080;28;20718;-73
2023/10/24 07:10:08;;;;;;;8.27;5.30;;;11.40;99.90;;;;;;5016186;28;20712;-71
2023/10/24 07:12:34;;;;;;;8.93;5.70;;;11.50;99.90;;;;;;5016926;28;20240;-73
2023/10/24 07:14:59;;;;;;;9.00;5.57;;;11.50;99.90;;;;;;5012480;28;20671;-74
2023/10/24 07:17:25;;;;;;;9.13;5.80;;;11.40;99.90;;;;;;5015756;28;20180;-74
2023/10/24 07:19:51;;;;;;;9.50;5.87;;;11.50;99.90;;;;;;5014060;28;20691;-73
2023/10/24 07:22:17;;;;;;;13.13;5.83;;;11.40;99.90;;;;;;5018419;28;20246;-73
2023/10/24 07:24:42;;;;;;;9.43;6.63;;;11.50;99.90;;;;;;5022056;28;20255;-73
2023/10/24 07:27:10;;;;;;;11.00;6.20;;;11.60;99.90;;;;;;5018906;28;20187;-73
2023/10/24 07:29:36;;;;;;;9.00;5.90;;;11.50;99.90;;;;;;5022155;28;20328;-73
2023/10/24 07:32:01;;;;;;;9.87;5.60;;;11.60;99.90;;;;;;5022753;28;20687;-74
2023/10/24 07:34:30;;;;;;;12.70;6.07;;;11.60;99.90;;;;;;5019295;28;20340;-73
2023/10/24 07:36:55;;;;;;;9.90;5.80;;;11.60;99.90;;;;;;5020430;28;20713;-73
2023/10/24 07:39:21;;;;;;;9.97;5.57;;;11.70;99.90;;;;;;5020662;28;20216;-73
2023/10/24 07:41:46;;;;;;;10.30;6.10;;;11.60;99.90;;;;;;5012484;28;20173;-73
2023/10/24 07:44:13;;;;;;;10.77;6.13;;;11.60;99.90;;;;;;5014914;28;20636;-73
2023/10/24 07:46:39;;;;;;;10.73;6.03;;;11.70;99.90;;;;;;5023639;28;20204;-73
2023/10/24 07:49:04;;;;;;;14.17;7.03;;;11.60;99.90;;;;;;5036640;22;20271;-78
2023/10/24 07:51:31;;;;;;;12.77;6.30;;;11.70;99.90;;;;;;5036551;28;20204;-79
2023/10/24 07:53:57;;;;;;;11.03;6.50;;;11.70;99.90;;;;;;5018578;28;20184;-77
2023/10/24 07:56:23;;;;;;;10.07;6.03;;;11.70;99.90;;;;;;5023829;28;20187;-80
2023/10/24 07:58:49;;;;;;;10.83;6.07;;;11.70;99.90;;;;;;5028643;28;20211;-80
2023/10/24 08:01:15;;;;;;;8.67;6.23;;;11.70;99.90;;;;;;5032981;28;20216;-80
2023/10/24 08:03:40;;;;;;;12.60;6.50;;;11.70;99.90;;;;;;5034443;28;20217;-79
2023/10/24 08:06:06;;;;;;;10.10;7.10;;;11.70;99.90;;;;;;5027784;28;20669;-77
2023/10/24 08:08:31;;;;;;;11.00;5.93;;;11.70;99.90;;;;;;5033969;28;20212;-79
2023/10/24 08:10:57;;;;;;;10.50;5.77;;;11.70;99.90;;;;;;5023118;28;20209;-79
2023/10/24 08:13:23;;;;;;;14.10;7.00;;;11.70;99.90;;;;;;5026760;28;20259;-80
2023/10/24 08:15:52;;;;;;;10.87;6.47;;;11.70;99.90;;;;;;5031691;28;20605;-80
2023/10/24 08:18:21;;;;;;;10.00;6.27;;;11.60;99.90;;;;;;5028932;28;20244;-80
2023/10/24 08:20:47;;;;;;;10.30;6.47;;;11.70;99.90;;;;;;5023440;28;20263;-78
2023/10/24 08:23:13;;;;;;;12.97;6.23;;;11.80;99.90;;;;;;5017693;28;20763;-78
2023/10/24 08:25:39;;;;;;;9.77;6.50;;;11.70;99.90;;;;;;5017786;28;20209;-76
2023/10/24 08:28:06;;;;;;;9.10;6.47;;;11.70;99.90;;;;;;5021918;28;20212;-79
2023/10/24 08:30:32;;;;;;;10.10;6.07;;;11.80;99.90;;;;;;5014998;28;20287;-78
2023/10/24 08:32:58;;;;;;;12.50;7.00;;;11.70;99.90;;;;;;5038245;28;20268;-76
2023/10/24 08:35:23;;;;;;;11.57;6.23;;;11.70;99.90;;;;;;5012103;28;20184;-77
2023/10/24 08:37:49;;;;;;;14.07;6.37;;;11.70;99.90;;;;;;5019425;28;20213;-78
2023/10/24 08:40:15;;;;;;;11.30;6.57;;;11.70;99.90;;;;;;5022369;28;20295;-79
2023/10/24 08:42:41;;;;;;;11.43;6.40;;;11.80;99.90;;;;;;5024401;28;20589;-79
2023/10/24 08:45:09;;;;;;;10.63;6.57;;;11.80;99.90;;;;;;5024047;28;20207;-79
2023/10/24 08:47:35;;;;;;;13.60;7.87;;;11.80;99.90;;;;;;5020144;28;20293;-80
2023/10/24 08:50:02;;;;;;;13.97;7.07;;;11.80;99.90;;;;;;5023197;28;20223;-79
2023/10/24 08:52:30;;;;;;;12.27;7.93;;;11.80;99.90;;;;;;5024071;28;20208;-79
2023/10/24 08:54:57;;;;;;;11.07;7.17;;;11.90;99.90;;;;;;5027966;28;20711;-79
2023/10/24 08:57:27;;;;;;;14.73;8.13;;;11.90;99.90;;;;;;5013597;28;20248;-77
2023/10/24 08:59:55;;;;;;;11.17;7.37;;;12.00;99.90;;;;;;5019701;28;20573;-79
2023/10/24 09:02:22;;;;;;;17.73;8.90;;;12.00;99.90;;;;;;5024333;28;20699;-77
2023/10/24 09:04:50;;;;;;;10.27;5.90;;;12.10;99.90;;;;;;5023026;28;20228;-79
2023/10/24 09:07:15;;;;;;;13.10;7.17;;;12.10;99.90;;;;;;5024126;28;20212;-79
2023/10/24 09:09:41;;;;;;;17.67;7.77;;;12.20;99.90;;;;;;5024323;28;20653;-79
2023/10/24 09:12:08;;;;;;;14.73;7.60;;;12.30;99.90;;;;;;5025779;28;20184;-79
2023/10/24 09:14:34;;;;;;;13.17;7.20;;;12.40;99.90;;;;;;5018660;28;20185;-79
2023/10/24 09:17:01;;;;;;;13.75;7.20;;;12.40;99.90;;;;;;5016717;28;20216;-79
2023/10/24 09:19:27;;;;;;;11.05;7.03;;;12.40;99.90;;;;;;5020441;28;20764;-80
2023/10/24 09:21:56;;;;;;;12.43;7.70;;;12.40;99.90;;;;;;5021129;28;20218;-80
2023/10/24 09:24:22;;;;;;;18.23;6.17;;;12.40;99.90;;;;;;5020064;28;20209;-79
2023/10/24 09:26:52;;;;;;;16.87;8.27;;;12.40;99.90;;;;;;5026028;28;20180;-80
2023/10/24 09:29:20;;;;;;;11.83;6.87;;;12.40;99.90;;;;;;5006343;28;20228;-79
2023/10/24 09:31:49;;;;;;;11.57;7.50;;;12.40;99.90;;;;;;5037160;28;20678;-79
2023/10/24 09:34:16;;;;;;;10.10;7.10;;;12.40;99.90;;;;;;5014716;28;20217;-78
2023/10/24 09:36:42;;;;;;;11.93;6.43;;;12.40;99.90;;;;;;5018954;28;20592;-79
2023/10/24 09:39:11;;;;;;;13.43;8.07;;;12.40;99.90;;;;;;5022611;28;20203;-78
2023/10/24 09:41:45;;;;;;;21.03;7.83;;;12.50;99.90;;;;;;5021251;28;20717;-79
2023/10/24 09:44:11;;;;;;;12.60;8.07;;;12.50;99.90;;;;;;5014420;28;20603;-79
2023/10/24 09:46:38;;;;;;;13.27;7.80;;;12.50;99.90;;;;;;5021588;28;20209;-79
2023/10/24 09:49:07;;;;;;;11.02;6.20;;;12.60;99.90;;;;;;5018524;28;20592;-79
2023/10/24 09:51:36;;;;;;;10.98;6.85;;;12.60;99.90;;;;;;5020654;28;20224;-79
2023/10/24 09:54:07;;;;;;;13.43;8.23;;;12.60;99.90;;;;;;5019710;28;20526;-79
2023/10/24 09:56:33;;;;;;;15.97;6.97;;;12.60;99.90;;;;;;5024279;28;20213;-79
2023/10/24 09:58:59;;;;;;;13.25;7.00;;;12.50;99.90;;;;;;5021604;28;20832;-76
2023/10/24 10:01:27;;;;;;;13.52;6.97;;;12.60;99.90;;;;;;5016818;28;20217;-79
2023/10/24 10:03:58;;;;;;;10.00;7.03;;;12.60;99.90;;;;;;5019848;28;20213;-79
2023/10/24 10:06:29;;;;;;;12.57;7.00;;;12.60;99.90;;;;;;5019794;28;20213;-79
2023/10/24 10:08:58;;;;;;;12.15;6.35;;;12.60;99.90;;;;;;5026948;28;20223;-79
2023/10/24 10:11:26;;;;;;;11.33;6.90;;;12.60;99.90;;;;;;5023701;28;20173;-80
2023/10/24 10:14:07;;;;;;;10.25;7.22;;;12.70;99.90;;;;;;5021066;28;20208;-79
2023/10/24 10:17:01;;;;;;;13.70;7.27;;;12.60;99.90;;;;;;5014854;28;20213;-80
2023/10/24 10:20:09;;;;;;;9.70;6.63;;;12.60;99.90;;;;;;5019040;28;20658;-79
2023/10/24 10:23:12;;;;;;;8.87;6.93;;;12.60;99.90;;;;;;4999500;28;20215;-79
2023/10/24 10:26:06;;;;;;;11.60;7.43;;;12.60;99.90;;;;;;5021190;28;20211;-77
2023/10/24 10:29:06;;;;;;;14.30;6.43;;;12.60;99.90;;;;;;5037880;28;20240;-79
2023/10/24 10:31:40;;;;;;;16.15;6.72;;;12.60;99.90;;;;;;5020945;28;20209;-78
2023/10/24 10:34:06;;;;;;;10.60;6.70;;;12.60;99.90;;;;;;5015443;28;20291;-79
2023/10/24 10:36:31;;;;;;;14.20;6.80;;;12.60;99.90;;;;;;5019020;28;20381;-79
2023/10/24 10:39:00;;;;;;;10.70;7.07;;;12.60;99.90;;;;;;5016135;28;20196;-77
2023/10/24 10:41:28;;;;;;;13.30;6.75;;;12.60;99.90;;;;;;5021058;28;20190;-79
2023/10/24 10:43:58;;;;;;;13.63;6.60;;;12.50;99.90;;;;;;5021245;28;20852;-79
2023/10/24 10:46:28;;;;;;;12.50;7.60;;;12.60;99.90;;;;;;5018763;28;20205;-79
2023/10/24 10:49:06;;;;;;;19.73;7.05;;;12.60;99.90;;;;;;5023083;28;20220;-78
2023/10/24 10:51:33;;;;;;;10.53;6.57;;;12.70;99.90;;;;;;5023540;28;20224;-79
2023/10/24 10:54:29;;;;;;;11.95;6.55;;;12.70;99.90;;;;;;5020467;28;20177;-80
2023/10/24 10:57:01;;;;;;;12.50;7.20;;;12.70;99.90;;;;;;5025434;28;20185;-80
2023/10/24 10:59:34;;;;;;;15.50;7.15;;;12.80;99.90;;;;;;5023702;28;20193;-79
2023/10/24 11:02:23;;;;;;;13.15;7.50;;;12.80;99.90;;;;;;5041340;28;20205;-80
2023/10/24 11:04:48;;;;;;;14.52;6.47;;;12.90;99.90;;;;;;5026818;28;20286;-79
2023/10/24 11:07:14;;;;;;;13.75;6.72;;;12.90;99.90;;;;;;5023132;28;20208;-79
2023/10/24 11:09:41;;;;;;;9.98;6.88;;;13.00;99.90;;;;;;5018472;28;20257;-79
2023/10/24 11:12:22;;;;;;;13.45;7.57;;;12.90;99.90;;;;;;5012313;28;20169;-79
2023/10/24 11:15:16;;;;;;;15.00;7.97;;;13.00;99.90;;;;;;5020809;28;20802;-79
2023/10/24 11:17:43;;;;;;;16.58;7.50;;;13.00;99.90;;;;;;5020869;28;20213;-80
2023/10/24 11:20:10;;;;;;;18.10;8.43;;;13.00;99.90;;;;;;5024908;28;20343;-80
2023/10/24 11:22:39;;;;;;;12.65;7.05;;;13.00;99.90;;;;;;5021773;28;20363;-78
2023/10/24 11:25:11;;;;;;;10.85;7.20;;;13.00;99.90;;;;;;5023275;28;20226;-78
2023/10/24 11:27:38;;;;;;;12.20;7.15;;;13.10;99.90;;;;;;5017702;28;20595;-77
2023/10/24 11:30:05;;;;;;;15.10;9.13;;;13.20;99.90;;;;;;5010340;28;20197;-79
2023/10/24 11:32:31;;;;;;;9.45;6.70;;;13.30;99.90;;;;;;5020035;28;20259;-79
2023/10/24 11:34:57;;;;;;;12.30;7.53;;;13.30;99.90;;;;;;5018091;28;20291;-77
2023/10/24 11:37:22;;;;;;;11.15;6.75;;;13.30;99.90;;;;;;5021390;28;20204;-79
2023/10/24 11:39:49;;;;;;;13.27;8.63;;;13.20;99.90;;;;;;5022436;28;20213;-79
2023/10/24 11:42:15;;;;;;;14.02;7.45;;;13.30;99.90;;;;;;5024502;28;20654;-79
2023/10/24 11:44:40;;;;;;;10.75;6.95;;;13.30;99.90;;;;;;5019013;28;20188;-78
2023/10/24 11:47:12;;;;;;;11.13;6.90;;;13.20;99.90;;;;;;5024656;28;20287;-78
2023/10/24 11:49:37;;;;;;;10.82;6.82;;;13.30;99.90;;;;;;5018562;28;20235;-80
2023/10/24 11:52:05;;;;;;;14.77;7.28;;;13.30;99.90;;;;;;5024796;28;20208;-78
2023/10/24 11:54:31;;;;;;;15.15;7.43;;;13.30;99.90;;;;;;5023957;28;20224;-79
2023/10/24 11:56:56;;;;;;;13.63;7.70;;;13.30;99.90;;;;;;5014514;28;20192;-78
2023/10/24 11:59:22;;;;;;;11.35;6.07;;;13.20;99.90;;;;;;5020767;28;20233;-79
2023/10/24 12:01:49;;;;;;;10.73;7.35;;;13.30;99.90;;;;;;5023202;28;20227;-79
2023/10/24 12:04:15;;;;;;;13.38;7.72;;;13.30;99.90;;;;;;5019462;28;20215;-78
2023/10/24 12:06:41;;;;;;;12.18;6.90;;;13.30;99.90;;;;;;5019148;28;20720;-79
2023/10/24 12:09:07;;;;;;;13.68;7.47;;;13.30;99.90;;;;;;5020012;28;20263;-79
2023/10/24 12:11:34;;;;;;;13.05;7.38;;;13.30;99.90;;;;;;5013732;28;20189;-78
2023/10/24 12:14:00;;;;;;;10.05;7.13;;;13.30;99.90;;;;;;5014252;28;20225;-79
2023/10/24 12:16:32;;;;;;;12.00;7.53;;;13.30;99.90;;;;;;5022000;28;20266;-78
2023/10/24 12:18:58;;;;;;;10.13;6.75;;;13.30;99.90;;;;;;5019403;28;20288;-77
2023/10/24 12:21:24;;;;;;;13.98;7.18;;;13.20;99.90;;;;;;5022601;28;20296;-79
2023/10/24 12:23:49;;;;;;;11.82;7.40;;;13.20;99.90;;;;;;5019246;28;20564;-78
2023/10/24 12:26:15;;;;;;;13.30;7.65;;;13.20;99.90;;;;;;5010538;28;20673;-78
2023/10/24 12:28:44;;;;;;;12.70;6.82;;;13.10;99.90;;;;;;5020595;28;20243;-79
2023/10/24 12:31:13;;;;;;;12.70;7.10;;;13.10;99.90;;;;;;5022149;28;20196;-80
2023/10/24 12:33:39;;;;;;;10.75;6.70;;;13.10;99.90;;;;;;5018153;28;20237;-78
2023/10/24 12:36:06;;;;;;;12.52;7.30;;;13.10;99.90;;;;;;5020938;28;20177;-78
2023/10/24 12:38:34;;;;;;;12.65;6.65;;;13.10;99.90;;;;;;5017950;28;20684;-79
2023/10/24 12:41:00;;;;;;;11.95;7.50;;;13.10;99.90;;;;;;5020468;28;20201;-79